Time;durP1;ratioP1;P1;durP2;ratioP2;P2;SDS_P1;SDS_P2;PMS_P1;PMS_P2;Temp;Humidity;BMP_temperature;BMP_pressure;BME280_temperature;BME280_humidity;BME280_pressure;Samples;Min_cycle;Max_cycle;Signal;HPM_P1;HPM_P2
2022/08/30 00:01:03;;;;;;;7.05;4.53;;;22.70;99.90;;;;;;5009207;28;20488;-69
2022/08/30 00:04:07;;;;;;;6.45;3.60;;;22.60;99.90;;;;;;5009082;28;20049;-70
2022/08/30 00:07:11;;;;;;;8.05;3.70;;;22.60;99.90;;;;;;5009796;28;20045;-70
2022/08/30 00:10:15;;;;;;;4.70;3.28;;;22.50;99.90;;;;;;5009327;28;20049;-70
2022/08/30 00:13:21;;;;;;;4.35;3.17;;;22.60;99.90;;;;;;5009167;28;20405;-69
2022/08/30 00:16:25;;;;;;;7.03;3.45;;;22.50;99.90;;;;;;5009707;28;20056;-69
2022/08/30 00:22:52;;;;;;;4.38;3.20;;;22.50;99.90;;;;;;5013141;28;20396;-70
2022/08/30 00:25:56;;;;;;;4.47;3.28;;;22.40;99.90;;;;;;5012154;28;20045;-70
2022/08/30 00:28:59;;;;;;;6.38;3.50;;;22.40;99.90;;;;;;5012951;28;20049;-70
2022/08/30 00:35:26;;;;;;;4.68;3.10;;;22.30;99.90;;;;;;5012643;28;20052;-70
2022/08/30 00:38:49;;;;;;;9.60;3.58;;;22.20;99.90;;;;;;5012963;28;20057;-70
2022/08/30 00:41:53;;;;;;;4.47;3.63;;;22.30;99.90;;;;;;5013342;28;20061;-70
2022/08/30 00:44:57;;;;;;;7.65;4.20;;;22.20;99.90;;;;;;5012263;28;20044;-69
2022/08/30 00:48:21;;;;;;;7.78;3.95;;;22.20;99.90;;;;;;5012603;28;20037;-69
2022/08/30 00:51:25;;;;;;;7.05;4.15;;;22.00;99.90;;;;;;5012769;28;20053;-70
2022/08/30 00:54:31;;;;;;;6.07;4.07;;;22.00;99.90;;;;;;5011826;28;20045;-69
2022/08/30 00:57:35;;;;;;;6.35;4.00;;;22.00;99.90;;;;;;5012464;28;20060;-69
2022/08/30 01:00:39;;;;;;;6.95;4.55;;;21.90;99.90;;;;;;5012307;28;20045;-70
2022/08/30 01:03:45;;;;;;;8.63;4.15;;;21.90;99.90;;;;;;5011733;28;20053;-70
2022/08/30 01:07:08;;;;;;;8.43;4.60;;;21.90;99.90;;;;;;5012275;28;20049;-69
2022/08/30 01:10:34;;;;;;;4.55;4.00;;;21.90;99.90;;;;;;5012515;28;20044;-69
2022/08/30 01:13:57;;;;;;;4.80;4.22;;;21.80;99.90;;;;;;5011994;28;20056;-69
2022/08/30 01:17:20;;;;;;;8.80;4.32;;;21.80;99.90;;;;;;5012176;28;20504;-70
2022/08/30 01:20:51;;;;;;;7.35;4.13;;;21.80;99.90;;;;;;5011790;28;20061;-70
2022/08/30 01:23:57;;;;;;;9.25;4.28;;;21.70;99.90;;;;;;5011134;28;20053;-69
2022/08/30 01:27:21;;;;;;;6.05;4.32;;;21.60;99.90;;;;;;5012082;28;20048;-70
2022/08/30 01:30:25;;;;;;;6.30;4.45;;;21.60;99.90;;;;;;5011499;28;20072;-70
2022/08/30 01:33:29;;;;;;;6.22;4.70;;;21.60;99.90;;;;;;5011559;28;20057;-70
2022/08/30 01:36:36;;;;;;;13.52;4.68;;;21.70;99.90;;;;;;5011804;28;20048;-70
2022/08/30 01:40:00;;;;;;;10.68;4.80;;;21.70;99.90;;;;;;5011427;28;20053;-69
2022/08/30 01:43:05;;;;;;;6.45;4.32;;;21.80;99.90;;;;;;5011602;28;20057;-70
2022/08/30 01:46:28;;;;;;;9.70;4.40;;;21.80;99.90;;;;;;5022185;28;20057;-70
2022/08/30 01:49:32;;;;;;;7.75;4.25;;;21.80;99.90;;;;;;5011331;28;20037;-70
2022/08/30 01:52:36;;;;;;;5.97;3.70;;;21.80;99.90;;;;;;5012302;28;20045;-69
2022/08/30 01:55:41;;;;;;;7.28;4.55;;;21.80;99.90;;;;;;5011534;28;20072;-69
2022/08/30 02:02:27;;;;;;;12.90;5.18;;;21.60;99.90;;;;;;5011564;28;20045;-70
2022/08/30 02:05:31;;;;;;;12.60;5.18;;;21.30;99.90;;;;;;5011206;28;20049;-69
2022/08/30 02:08:37;;;;;;;7.78;5.40;;;21.10;99.90;;;;;;5011812;28;20057;-69
2022/08/30 02:11:41;;;;;;;9.15;6.13;;;20.80;99.90;;;;;;5011444;28;20049;-69
2022/08/30 02:14:45;;;;;;;12.48;6.57;;;20.50;99.90;;;;;;5011116;28;20059;-69
2022/08/30 02:17:49;;;;;;;11.68;6.40;;;20.20;99.90;;;;;;5011529;28;20052;-70
2022/08/30 02:20:53;;;;;;;8.57;5.80;;;20.10;99.90;;;;;;5010813;28;20535;-69
2022/08/30 02:23:57;;;;;;;13.30;6.15;;;20.00;99.90;;;;;;5010672;28;20048;-69
2022/08/30 02:27:39;;;;;;;8.15;5.50;;;19.90;99.90;;;;;;5011402;28;20056;-69
2022/08/30 02:30:43;;;;;;;7.13;5.53;;;19.90;99.90;;;;;;5010469;28;20167;-70
2022/08/30 02:33:51;;;;;;;7.53;6.13;;;19.90;99.90;;;;;;5010549;28;20511;-69
2022/08/30 02:40:37;;;;;;;8.47;6.20;;;19.90;99.90;;;;;;5009823;28;20037;-69
2022/08/30 02:43:40;;;;;;;7.65;6.45;;;20.00;99.90;;;;;;5009956;28;20049;-70
2022/08/30 02:47:03;;;;;;;13.85;6.18;;;20.00;99.90;;;;;;5010592;28;20048;-69
2022/08/30 02:53:32;;;;;;;10.25;6.10;;;20.10;99.90;;;;;;5010101;28;20499;-70
2022/08/30 02:56:36;;;;;;;9.27;5.45;;;20.10;99.90;;;;;;5010305;28;20388;-70
2022/08/30 02:59:44;;;;;;;7.00;5.85;;;20.10;99.90;;;;;;5010471;28;20049;-69
2022/08/30 03:03:07;;;;;;;7.00;5.60;;;20.10;99.90;;;;;;5010128;28;20500;-69
2022/08/30 03:06:12;;;;;;;8.43;5.18;;;20.10;99.90;;;;;;5010500;28;20049;-69
2022/08/30 03:09:16;;;;;;;6.05;5.45;;;20.10;99.90;;;;;;5010743;28;20377;-69
2022/08/30 03:12:40;;;;;;;8.88;6.18;;;20.10;99.90;;;;;;5010364;28;20045;-69
2022/08/30 03:15:44;;;;;;;10.88;5.93;;;20.10;99.90;;;;;;5010517;28;20825;-70
2022/08/30 03:18:48;;;;;;;7.07;4.63;;;20.00;99.90;;;;;;5009534;28;20049;-70
2022/08/30 03:22:10;;;;;;;6.72;4.72;;;20.00;99.90;;;;;;5010645;28;20519;-69
2022/08/30 03:25:15;;;;;;;11.30;5.43;;;20.10;99.90;;;;;;5009986;28;20048;-70
2022/08/30 03:28:19;;;;;;;8.38;4.90;;;20.10;99.90;;;;;;5010005;28;20046;-69
2022/08/30 03:31:42;;;;;;;9.45;5.03;;;20.20;99.90;;;;;;5009998;28;20677;-70
2022/08/30 03:34:46;;;;;;;9.70;4.65;;;20.20;99.90;;;;;;5009817;28;20057;-70
2022/08/30 03:37:50;;;;;;;6.70;4.70;;;20.30;99.90;;;;;;5010288;28;20049;-70
2022/08/30 03:44:37;;;;;;;13.80;5.55;;;20.10;99.90;;;;;;5009745;28;20045;-69
2022/08/30 03:48:01;;;;;;;7.47;6.25;;;19.90;99.90;;;;;;5010002;28;20080;-70
2022/08/30 03:51:05;;;;;;;7.55;5.28;;;19.70;99.90;;;;;;5009780;28;20057;-70
2022/08/30 03:54:28;;;;;;;8.07;5.35;;;19.70;99.90;;;;;;5013412;28;20040;-69
2022/08/30 03:57:50;;;;;;;8.90;6.18;;;19.60;99.90;;;;;;5013389;28;20504;-69
2022/08/30 04:00:54;;;;;;;9.38;6.47;;;19.50;99.90;;;;;;5013720;28;20061;-69
2022/08/30 04:03:58;;;;;;;10.05;6.40;;;19.30;99.90;;;;;;5012991;28;20049;-70
2022/08/30 04:07:02;;;;;;;11.98;6.80;;;19.20;99.90;;;;;;5013615;28;20053;-69
2022/08/30 04:10:08;;;;;;;10.63;6.47;;;19.00;99.90;;;;;;5013898;28;20049;-69
2022/08/30 04:13:14;;;;;;;12.27;7.70;;;19.00;99.90;;;;;;5013304;28;20052;-68
2022/08/30 04:16:21;;;;;;;13.20;8.05;;;19.00;99.90;;;;;;5013395;28;20040;-69
2022/08/30 04:19:25;;;;;;;9.63;8.65;;;18.90;99.90;;;;;;5013599;28;20041;-69
2022/08/30 04:22:48;;;;;;;11.27;7.85;;;18.90;99.90;;;;;;5013222;28;20053;-69
2022/08/30 04:25:53;;;;;;;13.43;8.63;;;18.90;99.90;;;;;;5012394;28;20048;-69
2022/08/30 04:29:16;;;;;;;12.73;8.63;;;18.90;99.90;;;;;;5013653;28;20064;-69
2022/08/30 04:32:20;;;;;;;16.33;9.80;;;18.90;99.90;;;;;;5013403;28;20049;-69
2022/08/30 04:35:25;;;;;;;14.18;8.80;;;18.90;99.90;;;;;;5013546;28;20065;-69
2022/08/30 04:38:30;;;;;;;10.55;8.32;;;19.00;99.90;;;;;;5014122;28;20057;-70
2022/08/30 04:41:36;;;;;;;10.77;8.40;;;19.00;99.90;;;;;;5013999;28;20057;-69
2022/08/30 04:44:40;;;;;;;15.68;9.65;;;19.00;99.90;;;;;;5013712;28;20053;-69
2022/08/30 04:47:44;;;;;;;18.98;10.20;;;19.00;99.90;;;;;;5012221;28;20041;-69
2022/08/30 04:50:49;;;;;;;19.63;9.35;;;18.90;99.90;;;;;;5013014;28;20037;-69
2022/08/30 04:53:53;;;;;;;12.32;7.85;;;18.90;99.90;;;;;;5012048;28;20049;-70
2022/08/30 04:56:57;;;;;;;10.82;7.85;;;19.00;99.90;;;;;;5013183;28;20365;-69
2022/08/30 05:00:03;;;;;;;14.93;7.20;;;19.00;99.90;;;;;;5012941;28;20507;-70
2022/08/30 05:03:08;;;;;;;10.40;9.07;;;19.00;99.90;;;;;;5012265;28;20049;-70
2022/08/30 05:06:30;;;;;;;16.00;8.52;;;19.00;99.90;;;;;;5012626;28;20409;-70
2022/08/30 05:09:36;;;;;;;11.73;8.07;;;19.00;99.90;;;;;;5012584;28;20045;-69
2022/08/30 05:12:40;;;;;;;10.52;7.30;;;19.00;99.90;;;;;;5012337;28;20049;-69
2022/08/30 05:15:44;;;;;;;17.00;7.93;;;19.10;99.90;;;;;;5011877;28;20069;-69
2022/08/30 05:18:50;;;;;;;11.85;7.78;;;19.20;99.90;;;;;;5012515;28;20068;-70
2022/08/30 05:25:27;;;;;;;9.60;7.63;;;19.50;99.90;;;;;;5011212;28;20057;-69
2022/08/30 05:28:31;;;;;;;9.77;6.68;;;20.70;99.90;;;;;;5012237;28;20504;-70
2022/08/30 05:31:54;;;;;;;10.25;5.95;;;23.70;99.90;;;;;;5011664;28;20056;-69
2022/08/30 05:34:58;;;;;;;12.95;5.70;;;26.20;99.90;;;;;;5011718;28;20511;-69
2022/08/30 05:38:01;;;;;;;11.60;5.00;;;27.70;99.90;;;;;;5011557;28;20049;-69
2022/08/30 05:41:06;;;;;;;8.73;4.28;;;28.30;99.90;;;;;;5011716;28;20049;-70
2022/08/30 05:44:10;;;;;;;11.15;4.82;;;28.70;99.90;;;;;;5011183;28;20049;-69
2022/08/30 05:47:14;;;;;;;8.05;4.25;;;28.90;99.90;;;;;;5011636;28;20384;-69
2022/08/30 05:50:36;;;;;;;5.65;3.22;;;29.20;99.90;;;;;;5011421;28;20045;-70
2022/08/30 05:53:40;;;;;;;5.32;3.03;;;30.20;99.90;;;;;;5011177;28;20048;-70
2022/08/30 05:56:45;;;;;;;6.85;2.60;;;31.30;99.90;;;;;;5011940;28;20049;-70
2022/08/30 05:59:49;;;;;;;5.00;3.10;;;32.00;99.90;;;;;;5011862;28;20228;-70
2022/08/30 06:02:53;;;;;;;5.80;3.28;;;32.80;99.90;;;;;;5021952;28;20049;-70
2022/08/30 06:05:59;;;;;;;7.82;3.28;;;32.80;99.90;;;;;;5011769;28;20044;-70
2022/08/30 06:09:05;;;;;;;13.50;3.67;;;32.80;99.90;;;;;;5011486;28;20049;-71
2022/08/30 06:12:09;;;;;;;5.85;2.75;;;33.10;99.90;;;;;;5011700;28;20149;-71
2022/08/30 06:15:12;;;;;;;5.30;3.40;;;33.30;99.90;;;;;;5010722;28;20049;-71
2022/08/30 06:18:16;;;;;;;8.07;3.10;;;33.80;99.20;;;;;;5011626;28;20157;-70
2022/08/30 06:25:03;;;;;;;8.00;2.80;;;34.30;98.10;;;;;;5010308;28;20040;-70
2022/08/30 06:28:08;;;;;;;4.35;2.95;;;34.10;98.20;;;;;;5011207;28;20049;-70
2022/08/30 06:31:15;;;;;;;4.07;2.72;;;34.10;98.10;;;;;;5010631;28;20057;-70
2022/08/30 06:34:20;;;;;;;4.65;2.97;;;33.70;97.80;;;;;;5010686;28;20049;-70
2022/08/30 06:37:24;;;;;;;4.13;2.70;;;33.50;97.90;;;;;;5010462;28;20045;-70
2022/08/30 06:40:28;;;;;;;5.90;2.78;;;33.30;98.00;;;;;;5010715;28;20504;-70
2022/08/30 06:43:51;;;;;;;6.18;2.97;;;33.50;97.80;;;;;;5009983;28;20037;-71
2022/08/30 06:46:56;;;;;;;6.15;3.05;;;33.60;97.40;;;;;;5010969;28;20064;-71
2022/08/30 06:50:00;;;;;;;11.35;2.50;;;33.10;97.90;;;;;;5010930;28;20053;-71
2022/08/30 06:53:05;;;;;;;10.73;2.97;;;31.80;98.30;;;;;;5010878;28;20502;-70
2022/08/30 06:56:11;;;;;;;6.88;3.28;;;32.50;98.50;;;;;;5010699;28;20045;-70
2022/08/30 07:02:57;;;;;;;6.97;2.95;;;32.80;97.40;;;;;;5010607;28;20049;-70
2022/08/30 07:06:01;;;;;;;6.05;2.83;;;32.60;97.70;;;;;;5011974;28;20044;-70
2022/08/30 07:09:05;;;;;;;7.65;3.22;;;31.70;98.50;;;;;;5021176;28;20045;-70
2022/08/30 07:12:10;;;;;;;4.57;2.60;;;31.80;98.40;;;;;;5016157;28;20045;-70
2022/08/30 07:15:52;;;;;;;3.85;2.60;;;33.10;97.80;;;;;;5020936;28;20044;-69
2022/08/30 07:19:15;;;;;;;4.95;2.50;;;34.50;96.60;;;;;;5020966;28;20036;-70
2022/08/30 07:22:19;;;;;;;4.85;2.53;;;35.40;95.80;;;;;;5019929;28;20388;-70
2022/08/30 07:25:23;;;;;;;9.20;2.50;;;35.90;94.90;;;;;;5024287;28;20052;-69
2022/08/30 07:28:27;;;;;;;8.23;2.97;;;35.80;94.50;;;;;;5025239;28;20514;-69
2022/08/30 07:31:33;;;;;;;8.30;2.90;;;34.80;95.10;;;;;;5021868;28;20400;-70
2022/08/30 07:34:37;;;;;;;5.45;2.58;;;33.40;95.80;;;;;;5021510;28;20041;-69
2022/08/30 07:37:41;;;;;;;5.35;2.78;;;33.10;96.50;;;;;;5015041;28;20045;-70
2022/08/30 07:40:46;;;;;;;6.03;2.30;;;33.20;97.00;;;;;;5021792;28;20054;-69
2022/08/30 07:44:09;;;;;;;4.05;2.47;;;34.10;96.60;;;;;;5016464;28;20049;-70
2022/08/30 07:47:13;;;;;;;4.55;2.50;;;34.90;95.10;;;;;;5019500;28;20067;-69
2022/08/30 07:50:17;;;;;;;5.13;2.72;;;34.90;95.20;;;;;;5022511;28;20500;-70
2022/08/30 07:53:39;;;;;;;5.57;2.25;;;33.60;95.60;;;;;;5026334;28;20045;-69
2022/08/30 07:56:44;;;;;;;6.53;2.25;;;35.00;95.70;;;;;;5021457;28;20045;-70
2022/08/30 07:59:49;;;;;;;4.75;2.30;;;36.70;94.70;;;;;;5018283;28;20401;-70
2022/08/30 08:03:12;;;;;;;3.22;2.13;;;38.10;93.00;;;;;;5018239;28;21635;-70
2022/08/30 08:06:19;;;;;;;7.40;2.38;;;39.00;91.80;;;;;;5024677;28;20045;-70
2022/08/30 08:09:23;;;;;;;8.55;2.30;;;40.00;90.90;;;;;;5017586;28;20049;-70
2022/08/30 08:15:51;;;;;;;4.25;2.13;;;40.90;89.50;;;;;;5017448;28;20103;-71
2022/08/30 08:18:54;;;;;;;4.20;2.10;;;41.60;87.90;;;;;;5020671;28;20040;-70
2022/08/30 08:21:59;;;;;;;4.68;1.80;;;42.70;85.80;;;;;;5020664;28;20464;-70
2022/08/30 08:25:03;;;;;;;3.30;1.80;;;42.90;83.70;;;;;;5015903;28;20052;-70
2022/08/30 08:28:07;;;;;;;6.68;2.40;;;42.50;83.30;;;;;;5019512;28;20033;-70
2022/08/30 08:31:30;;;;;;;5.25;2.10;;;41.90;82.60;;;;;;5018993;28;20047;-71
2022/08/30 08:34:35;;;;;;;3.22;2.00;;;42.30;83.10;;;;;;5019029;28;20498;-70
2022/08/30 08:38:16;;;;;;;4.35;1.73;;;43.00;81.10;;;;;;5013623;28;20049;-71
2022/08/30 08:41:59;;;;;;;6.53;1.50;;;43.20;80.60;;;;;;5021059;28;20048;-71
2022/08/30 08:45:13;;;;;;;4.03;1.90;;;43.50;79.00;;;;;;5020709;28;20396;-70
2022/08/30 08:48:49;;;;;;;5.07;1.98;;;43.20;78.70;;;;;;5014997;28;20053;-70
2022/08/30 08:55:45;;;;;;;3.90;2.08;;;37.80;84.20;;;;;;5020967;28;20759;-70
2022/08/30 08:58:53;;;;;;;6.38;2.10;;;38.00;85.80;;;;;;5018991;28;20041;-70
2022/08/30 09:02:00;;;;;;;3.13;2.05;;;37.40;87.10;;;;;;5017095;28;20064;-70
2022/08/30 09:05:05;;;;;;;6.35;2.08;;;38.70;85.40;;;;;;5018496;28;20607;-70
2022/08/30 09:08:13;;;;;;;6.40;2.10;;;40.60;83.40;;;;;;5017350;28;20483;-70
2022/08/30 09:11:26;;;;;;;3.10;1.58;;;39.70;82.20;;;;;;5016853;28;20384;-70
2022/08/30 09:14:39;;;;;;;4.03;2.10;;;42.30;80.60;;;;;;5022422;28;20044;-70
2022/08/30 09:18:11;;;;;;;4.38;1.90;;;42.80;79.60;;;;;;5025998;28;20045;-71
2022/08/30 09:21:23;;;;;;;4.57;1.70;;;40.30;77.40;;;;;;5018633;28;20044;-70
2022/08/30 09:24:37;;;;;;;3.58;1.95;;;42.00;78.30;;;;;;5027886;28;20404;-70
2022/08/30 09:27:45;;;;;;;3.28;1.80;;;42.80;77.90;;;;;;5014665;28;20056;-70
2022/08/30 09:31:25;;;;;;;2.70;1.70;;;44.90;76.10;;;;;;5017426;28;20040;-71
2022/08/30 09:34:32;;;;;;;3.42;1.90;;;45.90;73.70;;;;;;5002276;28;20048;-69
2022/08/30 09:37:46;;;;;;;2.70;1.60;;;46.70;73.00;;;;;;5020212;28;20617;-68
2022/08/30 09:41:26;;;;;;;4.03;1.67;;;47.00;71.60;;;;;;5026895;28;20048;-69
2022/08/30 09:44:37;;;;;;;3.78;1.60;;;45.60;71.70;;;;;;5020654;28;20044;-70
2022/08/30 09:48:19;;;;;;;3.20;1.63;;;46.00;69.90;;;;;;5018004;28;20500;-69
2022/08/30 09:51:51;;;;;;;3.25;1.70;;;45.20;69.40;;;;;;5019318;28;20044;-70
2022/08/30 09:55:14;;;;;;;3.28;1.40;;;43.80;71.20;;;;;;5018786;28;20044;-69
2022/08/30 09:58:52;;;;;;;4.53;1.50;;;45.70;69.60;;;;;;5016780;28;20060;-70
2022/08/30 10:02:21;;;;;;;1.98;1.40;;;47.30;68.20;;;;;;5015941;28;20499;-69
2022/08/30 10:06:05;;;;;;;2.33;1.30;;;45.50;68.30;;;;;;5019259;28;20066;-69
2022/08/30 10:09:31;;;;;;;3.90;1.48;;;45.60;67.90;;;;;;5022319;28;20049;-68
2022/08/30 10:13:00;;;;;;;3.15;1.30;;;46.50;67.50;;;;;;5039434;28;20056;-69
2022/08/30 10:16:23;;;;;;;2.70;1.25;;;45.10;66.20;;;;;;5021970;28;20403;-68
2022/08/30 10:20:03;;;;;;;3.10;1.50;;;45.90;66.90;;;;;;5022369;28;20495;-69
2022/08/30 10:23:10;;;;;;;3.03;1.35;;;47.20;66.40;;;;;;5008742;28;20053;-69
2022/08/30 10:26:46;;;;;;;5.30;1.10;;;47.80;65.40;;;;;;5018435;28;20057;-69
2022/08/30 10:30:01;;;;;;;3.65;1.60;;;48.40;63.90;;;;;;5024512;28;20069;-68
2022/08/30 10:33:10;;;;;;;4.28;1.30;;;48.60;63.60;;;;;;5016841;28;20501;-69
2022/08/30 10:36:34;;;;;;;2.47;1.05;;;49.50;62.90;;;;;;5015725;28;20045;-69
2022/08/30 10:41:11;;;;;;;2.70;1.20;;;49.80;61.00;;;;;;5017094;28;20048;-69
2022/08/30 10:47:24;;;;;;;1.45;1.10;;;48.40;61.20;;;;;;5020150;28;20041;-69
2022/08/30 10:50:34;;;;;;;2.55;1.10;;;48.50;60.30;;;;;;5017566;28;20048;-69
2022/08/30 10:53:49;;;;;;;3.55;1.38;;;48.00;62.40;;;;;;5028362;28;20036;-69
2022/08/30 10:56:55;;;;;;;3.67;1.35;;;49.00;63.60;;;;;;5021065;28;20044;-71
2022/08/30 11:00:17;;;;;;;3.42;1.20;;;48.00;62.50;;;;;;5021519;28;20036;-69
2022/08/30 11:03:59;;;;;;;2.13;1.20;;;48.80;62.70;;;;;;5018017;28;20397;-69
2022/08/30 11:07:14;;;;;;;3.47;1.63;;;48.40;63.10;;;;;;5014817;28;20716;-68
2022/08/30 11:10:40;;;;;;;3.65;1.60;;;48.10;63.40;;;;;;5017862;28;20127;-68
2022/08/30 11:13:46;;;;;;;2.85;1.45;;;47.00;64.00;;;;;;5013604;28;20049;-67
2022/08/30 11:17:31;;;;;;;5.68;1.40;;;43.10;66.90;;;;;;5013895;28;20056;-68
2022/08/30 11:20:51;;;;;;;4.60;1.73;;;44.60;67.00;;;;;;5012115;28;20052;-71
2022/08/30 11:24:12;;;;;;;6.13;1.50;;;46.20;66.30;;;;;;5013640;28;20048;-69
2022/08/30 11:27:46;;;;;;;3.60;1.42;;;46.80;65.40;;;;;;5019482;28;20044;-71
2022/08/30 11:31:02;;;;;;;2.90;1.70;;;47.20;65.00;;;;;;5018121;28;20045;-70
2022/08/30 11:41:10;;;;;;;3.50;1.50;;;48.10;63.50;;;;;;5025401;28;20040;-70
2022/08/30 11:44:38;;;;;;;3.60;1.15;;;47.60;62.80;;;;;;5028089;28;20502;-70
2022/08/30 11:47:57;;;;;;;3.25;1.30;;;48.20;63.10;;;;;;5035583;28;20507;-70
2022/08/30 11:51:35;;;;;;;6.93;1.55;;;49.90;61.10;;;;;;5028832;28;20044;-70
2022/08/30 11:55:01;;;;;;;2.08;1.20;;;51.10;60.50;;;;;;5022984;28;20385;-70
2022/08/30 11:58:14;;;;;;;3.80;1.48;;;51.60;60.00;;;;;;5030139;28;20486;-69
2022/08/30 12:01:40;;;;;;;3.05;1.45;;;49.40;62.00;;;;;;5010203;28;20053;-70
2022/08/30 12:04:46;;;;;;;2.63;1.58;;;48.20;62.90;;;;;;5010741;28;20487;-72
2022/08/30 12:08:01;;;;;;;2.85;1.40;;;48.90;62.80;;;;;;5010920;28;20048;-70
2022/08/30 12:11:11;;;;;;;3.25;1.50;;;49.60;61.90;;;;;;5011079;28;20053;-72
2022/08/30 12:15:00;;;;;;;2.03;1.27;;;50.40;60.20;;;;;;5013364;28;20056;-70
2022/08/30 12:18:37;;;;;;;4.05;1.35;;;50.20;60.90;;;;;;5014273;28;20053;-70
2022/08/30 12:21:35;;;;;;;2.60;1.33;;;49.10;61.50;;;;;;5014411;28;20045;-72
2022/08/30 12:24:47;;;;;;;1.70;1.23;;;47.50;61.80;;;;;;5013832;28;20045;-69
2022/08/30 12:28:09;;;;;;;3.67;1.75;;;45.80;62.70;;;;;;5013803;28;20053;-68
2022/08/30 12:31:22;;;;;;;4.50;1.50;;;45.00;66.50;;;;;;5013843;28;20146;-69
2022/08/30 12:34:45;;;;;;;4.80;1.42;;;45.70;63.60;;;;;;5013569;28;20500;-71
2022/08/30 12:38:01;;;;;;;3.95;1.70;;;44.80;64.00;;;;;;5013766;28;20049;-69
2022/08/30 12:41:05;;;;;;;1.83;1.30;;;43.20;63.50;;;;;;5013641;28;20045;-70
2022/08/30 12:44:26;;;;;;;2.13;1.30;;;44.70;64.10;;;;;;5013435;28;20041;-71
2022/08/30 12:47:51;;;;;;;3.72;1.40;;;44.80;62.90;;;;;;5013968;28;20056;-71
2022/08/30 12:54:23;;;;;;;2.63;1.40;;;43.10;64.20;;;;;;5013571;28;20389;-70
2022/08/30 12:57:53;;;;;;;3.15;1.45;;;44.00;62.90;;;;;;5013084;28;20049;-70
2022/08/30 13:01:26;;;;;;;1.63;1.20;;;44.90;62.30;;;;;;5013061;28;20057;-70
2022/08/30 13:04:31;;;;;;;2.95;1.08;;;46.20;60.10;;;;;;5013248;28;20511;-72
2022/08/30 13:07:35;;;;;;;3.08;1.10;;;46.10;59.40;;;;;;5013667;28;20053;-72
2022/08/30 13:10:58;;;;;;;1.63;1.13;;;46.30;59.50;;;;;;5013390;28;20036;-70
2022/08/30 13:14:31;;;;;;;1.63;1.08;;;47.20;59.00;;;;;;5013160;28;20057;-70
2022/08/30 13:17:35;;;;;;;2.20;1.08;;;47.00;59.30;;;;;;5012846;28;20385;-73
2022/08/30 13:20:39;;;;;;;2.10;1.10;;;45.20;58.70;;;;;;5013405;28;20061;-72
2022/08/30 13:23:43;;;;;;;2.33;1.13;;;44.80;60.50;;;;;;5012566;28;20068;-72
2022/08/30 13:26:48;;;;;;;3.05;1.38;;;44.40;61.00;;;;;;5012439;28;20389;-73
2022/08/30 13:29:52;;;;;;;1.77;1.63;;;43.30;60.10;;;;;;5012648;28;20045;-72
2022/08/30 13:32:56;;;;;;;5.80;1.63;;;42.10;60.80;;;;;;5012798;28;20103;-73
2022/08/30 13:36:00;;;;;;;8.88;2.28;;;41.90;60.80;;;;;;5013058;28;20044;-70
2022/08/30 13:39:05;;;;;;;2.58;1.60;;;42.00;60.40;;;;;;5012317;28;20045;-71
2022/08/30 13:42:09;;;;;;;3.25;1.60;;;41.20;62.20;;;;;;5012767;28;20053;-71
2022/08/30 13:45:15;;;;;;;2.85;1.45;;;41.30;61.90;;;;;;5012449;28;20397;-71
2022/08/30 13:48:38;;;;;;;3.67;1.65;;;41.30;61.50;;;;;;5012392;28;20045;-72
2022/08/30 13:51:42;;;;;;;5.25;1.83;;;38.90;61.90;;;;;;5011424;28;20045;-71
2022/08/30 13:54:46;;;;;;;2.75;2.00;;;39.10;63.40;;;;;;5012181;28;20480;-70
2022/08/30 13:57:50;;;;;;;3.85;1.83;;;39.30;64.40;;;;;;5012109;28;20129;-71
2022/08/30 14:00:55;;;;;;;4.53;2.30;;;37.70;66.00;;;;;;5010924;28;20045;-71
2022/08/30 14:03:59;;;;;;;4.47;2.25;;;37.70;66.40;;;;;;5011780;28;20041;-71
2022/08/30 14:07:04;;;;;;;4.03;1.92;;;38.00;66.50;;;;;;5012161;28;20052;-70
2022/08/30 14:10:18;;;;;;;3.22;2.30;;;38.00;66.20;;;;;;5011861;28;20052;-70
2022/08/30 14:13:23;;;;;;;6.00;2.30;;;37.90;67.70;;;;;;5011835;28;20048;-71
2022/08/30 14:16:27;;;;;;;8.30;2.50;;;36.40;68.60;;;;;;5011578;28;20508;-71
2022/08/30 14:19:32;;;;;;;5.45;2.67;;;34.50;71.40;;;;;;5011564;28;20049;-70
2022/08/30 14:22:36;;;;;;;3.92;2.55;;;34.40;71.90;;;;;;5011465;28;20048;-71
2022/08/30 14:26:02;;;;;;;7.07;2.58;;;35.50;71.90;;;;;;5011552;28;20520;-70
2022/08/30 14:29:08;;;;;;;6.70;3.05;;;36.30;69.80;;;;;;5010696;28;20049;-71
2022/08/30 14:32:12;;;;;;;3.47;2.40;;;36.50;68.80;;;;;;5011612;28;20041;-71
2022/08/30 14:35:19;;;;;;;2.90;2.55;;;36.50;67.90;;;;;;5011006;28;20057;-71
2022/08/30 14:38:23;;;;;;;4.07;2.88;;;36.50;69.20;;;;;;5011215;28;20515;-72
2022/08/30 14:41:48;;;;;;;3.60;2.92;;;36.30;69.50;;;;;;5011057;28;20064;-71
2022/08/30 14:44:52;;;;;;;4.13;3.17;;;35.70;69.40;;;;;;5010977;28;20507;-71
2022/08/30 14:47:56;;;;;;;5.05;3.20;;;35.50;69.90;;;;;;5011160;28;20401;-71
2022/08/30 14:51:00;;;;;;;4.57;2.97;;;35.60;70.00;;;;;;5011377;28;20041;-72
2022/08/30 14:54:04;;;;;;;7.03;3.30;;;35.50;70.30;;;;;;5011166;28;20049;-71
2022/08/30 14:57:08;;;;;;;6.57;2.85;;;35.30;70.90;;;;;;5011215;28;20049;-71
2022/08/30 15:00:13;;;;;;;7.53;3.08;;;35.10;71.50;;;;;;5010617;28;20064;-71
2022/08/30 15:03:17;;;;;;;7.55;3.33;;;35.00;71.10;;;;;;5010797;28;20053;-70
2022/08/30 15:09:44;;;;;;;5.88;3.38;;;33.20;76.10;;;;;;5011116;28;20400;-71
2022/08/30 15:12:50;;;;;;;5.30;3.15;;;33.40;75.80;;;;;;5011308;28;20040;-70
2022/08/30 15:15:53;;;;;;;5.68;3.50;;;33.80;76.10;;;;;;5011145;28;20053;-71
2022/08/30 15:25:43;;;;;;;7.20;3.60;;;34.70;74.90;;;;;;5010827;28;20107;-71
2022/08/30 15:28:48;;;;;;;4.90;2.75;;;34.60;75.60;;;;;;5010622;28;20495;-71
2022/08/30 15:32:10;;;;;;;7.15;2.95;;;34.80;77.00;;;;;;5011009;28;20045;-71
2022/08/30 15:35:15;;;;;;;5.80;3.10;;;34.40;76.40;;;;;;5010849;28;20049;-71
2022/08/30 15:38:19;;;;;;;7.10;2.90;;;34.10;76.40;;;;;;5010576;28;20045;-71
2022/08/30 15:41:23;;;;;;;4.63;3.13;;;34.00;78.00;;;;;;5010802;28;20049;-71
2022/08/30 15:44:29;;;;;;;3.80;3.20;;;33.80;78.60;;;;;;5010777;28;20053;-71
2022/08/30 15:47:33;;;;;;;2.92;2.72;;;33.70;78.60;;;;;;5011685;28;20396;-70
2022/08/30 15:50:37;;;;;;;7.60;3.03;;;33.60;76.50;;;;;;5025111;28;20041;-72
2022/08/30 15:53:42;;;;;;;5.80;2.75;;;33.40;76.10;;;;;;5014284;28;20049;-72
2022/08/30 15:56:47;;;;;;;6.72;3.10;;;32.30;74.90;;;;;;5019143;28;20129;-70
2022/08/30 15:59:53;;;;;;;3.83;2.30;;;32.30;76.90;;;;;;5040715;28;20046;-70
2022/08/30 16:02:57;;;;;;;5.30;2.78;;;32.10;77.60;;;;;;5038461;28;20041;-71
2022/08/30 16:06:01;;;;;;;3.88;2.58;;;32.10;76.70;;;;;;5033317;28;20049;-71
2022/08/30 16:09:07;;;;;;;5.82;2.53;;;31.90;75.40;;;;;;5028923;28;20125;-72
2022/08/30 16:12:11;;;;;;;3.55;2.55;;;32.00;76.30;;;;;;5030775;28;20507;-71
2022/08/30 16:15:15;;;;;;;5.10;2.75;;;32.00;77.00;;;;;;5040227;28;20056;-70
2022/08/30 16:18:19;;;;;;;5.50;2.65;;;31.90;76.80;;;;;;5031951;28;20494;-71
2022/08/30 16:22:01;;;;;;;4.90;2.63;;;31.90;76.30;;;;;;5030090;28;20067;-71
2022/08/30 16:25:25;;;;;;;3.83;2.30;;;32.00;77.80;;;;;;5029782;28;20483;-71
2022/08/30 16:28:30;;;;;;;6.97;2.60;;;31.90;77.30;;;;;;5020034;28;20407;-71
2022/08/30 16:31:35;;;;;;;4.25;2.03;;;31.70;77.40;;;;;;5025913;28;20041;-72
2022/08/30 16:34:39;;;;;;;4.30;2.30;;;31.70;78.60;;;;;;5015153;28;20056;-69
2022/08/30 16:37:44;;;;;;;5.70;1.90;;;31.50;78.70;;;;;;5025411;28;20507;-71
2022/08/30 16:40:48;;;;;;;4.05;2.60;;;31.40;79.20;;;;;;5036781;28;20388;-70
2022/08/30 16:43:52;;;;;;;6.65;1.83;;;31.30;80.50;;;;;;5013362;28;20041;-71
2022/08/30 16:47:15;;;;;;;6.43;2.20;;;31.00;80.00;;;;;;5013428;28;20709;-70
2022/08/30 16:50:22;;;;;;;3.55;1.63;;;30.90;80.40;;;;;;5013605;28;20041;-71
2022/08/30 16:57:08;;;;;;;4.78;2.30;;;30.50;79.90;;;;;;5013915;28;20389;-71
2022/08/30 17:00:13;;;;;;;4.20;2.13;;;30.40;78.80;;;;;;5013535;28;20519;-71
2022/08/30 17:06:40;;;;;;;2.72;1.90;;;30.30;79.40;;;;;;5013412;28;20049;-71
2022/08/30 17:09:44;;;;;;;2.55;2.10;;;30.30;79.20;;;;;;5013222;28;20052;-73
2022/08/30 17:12:49;;;;;;;4.03;2.00;;;30.30;80.60;;;;;;5013541;28;20496;-71
2022/08/30 17:19:15;;;;;;;5.57;2.50;;;30.10;80.10;;;;;;5013364;28;20056;-71
2022/08/30 17:22:19;;;;;;;4.35;2.67;;;30.00;80.90;;;;;;5013603;28;20033;-70
2022/08/30 17:25:24;;;;;;;4.60;2.45;;;29.80;80.60;;;;;;5012760;28;20040;-70
2022/08/30 17:28:28;;;;;;;6.60;2.33;;;29.60;80.80;;;;;;5012331;28;20064;-71
2022/08/30 17:31:34;;;;;;;4.85;2.25;;;29.50;81.20;;;;;;5013070;28;20503;-70
2022/08/30 17:34:38;;;;;;;5.35;2.60;;;29.40;81.30;;;;;;5012822;28;20037;-70
2022/08/30 17:37:42;;;;;;;6.50;2.53;;;29.20;81.60;;;;;;5012926;28;20045;-70
2022/08/30 17:40:46;;;;;;;5.10;2.40;;;29.10;83.20;;;;;;5012887;28;20060;-71
2022/08/30 17:43:50;;;;;;;3.35;2.40;;;28.90;84.90;;;;;;5011798;28;20052;-70
2022/08/30 17:46:56;;;;;;;8.93;2.15;;;28.60;84.60;;;;;;5012589;28;20044;-71